sensor_id;sensor_type;location;lat;lon;timestamp;P1;durP1;ratioP1;P2;durP2;ratioP2
35074;SDS011;21260;34.984;32.490;2022-08-19T00:01:57;10.27;;;6.20;;
35074;SDS011;21260;34.984;32.490;2022-08-19T00:04:28;8.90;;;6.22;;
35074;SDS011;21260;34.984;32.490;2022-08-19T00:07:01;8.27;;;4.95;;
35074;SDS011;21260;34.984;32.490;2022-08-19T00:09:31;7.20;;;5.63;;
35074;SDS011;21260;34.984;32.490;2022-08-19T00:11:57;7.20;;;5.85;;
35074;SDS011;21260;34.984;32.490;2022-08-19T00:14:28;6.70;;;5.75;;
35074;SDS011;21260;34.984;32.490;2022-08-19T00:16:56;6.97;;;5.47;;
35074;SDS011;21260;34.984;32.490;2022-08-19T00:19:23;9.98;;;5.82;;
35074;SDS011;21260;34.984;32.490;2022-08-19T00:21:51;6.75;;;5.63;;
35074;SDS011;21260;34.984;32.490;2022-08-19T00:24:18;6.97;;;5.60;;
35074;SDS011;21260;34.984;32.490;2022-08-19T00:26:45;7.80;;;6.22;;
35074;SDS011;21260;34.984;32.490;2022-08-19T00:29:13;7.28;;;5.80;;
35074;SDS011;21260;34.984;32.490;2022-08-19T00:31:43;12.90;;;5.97;;
35074;SDS011;21260;34.984;32.490;2022-08-19T00:34:11;7.93;;;5.75;;
35074;SDS011;21260;34.984;32.490;2022-08-19T00:36:39;6.40;;;5.80;;
35074;SDS011;21260;34.984;32.490;2022-08-19T00:39:08;6.10;;;5.50;;
35074;SDS011;21260;34.984;32.490;2022-08-19T00:41:36;10.77;;;5.90;;
35074;SDS011;21260;34.984;32.490;2022-08-19T00:44:11;6.70;;;5.95;;
35074;SDS011;21260;34.984;32.490;2022-08-19T00:46:42;6.10;;;5.50;;
35074;SDS011;21260;34.984;32.490;2022-08-19T00:49:19;10.00;;;5.65;;
35074;SDS011;21260;34.984;32.490;2022-08-19T00:51:53;6.90;;;5.70;;
35074;SDS011;21260;34.984;32.490;2022-08-19T00:54:38;10.10;;;6.03;;
35074;SDS011;21260;34.984;32.490;2022-08-19T00:57:08;7.30;;;5.60;;
35074;SDS011;21260;34.984;32.490;2022-08-19T00:59:42;8.75;;;5.55;;
35074;SDS011;21260;34.984;32.490;2022-08-19T01:02:25;10.05;;;5.45;;
35074;SDS011;21260;34.984;32.490;2022-08-19T01:04:53;8.70;;;5.43;;
35074;SDS011;21260;34.984;32.490;2022-08-19T01:07:21;6.38;;;5.78;;
35074;SDS011;21260;34.984;32.490;2022-08-19T01:09:48;6.43;;;5.68;;
35074;SDS011;21260;34.984;32.490;2022-08-19T01:12:14;7.82;;;5.20;;
35074;SDS011;21260;34.984;32.490;2022-08-19T01:14:43;7.20;;;5.45;;
35074;SDS011;21260;34.984;32.490;2022-08-19T01:17:12;7.90;;;5.55;;
35074;SDS011;21260;34.984;32.490;2022-08-19T01:19:41;9.80;;;5.75;;
35074;SDS011;21260;34.984;32.490;2022-08-19T01:22:16;7.93;;;5.93;;
35074;SDS011;21260;34.984;32.490;2022-08-19T01:24:48;10.80;;;5.38;;
35074;SDS011;21260;34.984;32.490;2022-08-19T01:27:17;8.05;;;5.90;;
35074;SDS011;21260;34.984;32.490;2022-08-19T01:29:44;8.75;;;5.63;;
35074;SDS011;21260;34.984;32.490;2022-08-19T01:32:12;7.80;;;5.40;;
35074;SDS011;21260;34.984;32.490;2022-08-19T01:34:42;9.45;;;5.97;;
35074;SDS011;21260;34.984;32.490;2022-08-19T01:37:13;8.07;;;5.85;;
35074;SDS011;21260;34.984;32.490;2022-08-19T01:39:40;6.78;;;6.07;;
35074;SDS011;21260;34.984;32.490;2022-08-19T01:42:08;5.80;;;5.20;;
35074;SDS011;21260;34.984;32.490;2022-08-19T01:44:39;8.73;;;6.00;;
35074;SDS011;21260;34.984;32.490;2022-08-19T01:47:08;6.95;;;5.72;;
35074;SDS011;21260;34.984;32.490;2022-08-19T01:49:35;6.00;;;5.40;;
35074;SDS011;21260;34.984;32.490;2022-08-19T01:52:05;9.30;;;5.82;;
35074;SDS011;21260;34.984;32.490;2022-08-19T01:54:32;8.20;;;6.07;;
35074;SDS011;21260;34.984;32.490;2022-08-19T01:57:03;8.32;;;6.45;;
35074;SDS011;21260;34.984;32.490;2022-08-19T01:59:34;6.40;;;5.65;;
35074;SDS011;21260;34.984;32.490;2022-08-19T02:02:05;9.38;;;5.88;;
35074;SDS011;21260;34.984;32.490;2022-08-19T02:04:34;7.07;;;5.60;;
35074;SDS011;21260;34.984;32.490;2022-08-19T02:07:03;6.53;;;5.70;;
35074;SDS011;21260;34.984;32.490;2022-08-19T02:09:30;5.70;;;5.20;;
35074;SDS011;21260;34.984;32.490;2022-08-19T02:11:57;6.80;;;5.65;;
35074;SDS011;21260;34.984;32.490;2022-08-19T02:14:25;10.25;;;6.10;;
35074;SDS011;21260;34.984;32.490;2022-08-19T02:16:52;6.43;;;5.82;;
35074;SDS011;21260;34.984;32.490;2022-08-19T02:19:18;9.48;;;6.57;;
35074;SDS011;21260;34.984;32.490;2022-08-19T02:21:45;9.75;;;6.10;;
35074;SDS011;21260;34.984;32.490;2022-08-19T02:24:11;6.82;;;6.13;;
35074;SDS011;21260;34.984;32.490;2022-08-19T02:26:37;8.07;;;6.00;;
35074;SDS011;21260;34.984;32.490;2022-08-19T02:29:04;12.35;;;5.95;;
35074;SDS011;21260;34.984;32.490;2022-08-19T02:31:31;7.13;;;6.07;;
35074;SDS011;21260;34.984;32.490;2022-08-19T02:33:58;13.85;;;5.68;;
35074;SDS011;21260;34.984;32.490;2022-08-19T02:36:26;7.57;;;5.93;;
35074;SDS011;21260;34.984;32.490;2022-08-19T02:38:53;12.32;;;5.53;;
35074;SDS011;21260;34.984;32.490;2022-08-19T02:41:21;10.70;;;6.20;;
35074;SDS011;21260;34.984;32.490;2022-08-19T02:43:51;6.75;;;5.53;;
35074;SDS011;21260;34.984;32.490;2022-08-19T02:46:26;7.80;;;5.40;;
35074;SDS011;21260;34.984;32.490;2022-08-19T02:48:57;8.18;;;5.45;;
35074;SDS011;21260;34.984;32.490;2022-08-19T02:51:32;8.23;;;5.80;;
35074;SDS011;21260;34.984;32.490;2022-08-19T02:54:07;8.50;;;6.10;;
35074;SDS011;21260;34.984;32.490;2022-08-19T02:56:36;8.75;;;5.60;;
35074;SDS011;21260;34.984;32.490;2022-08-19T02:59:05;13.23;;;5.95;;
35074;SDS011;21260;34.984;32.490;2022-08-19T03:01:36;8.05;;;5.78;;
35074;SDS011;21260;34.984;32.490;2022-08-19T03:04:05;6.70;;;5.50;;
35074;SDS011;21260;34.984;32.490;2022-08-19T03:06:35;12.23;;;5.90;;
35074;SDS011;21260;34.984;32.490;2022-08-19T03:09:05;7.05;;;5.43;;
35074;SDS011;21260;34.984;32.490;2022-08-19T03:11:32;10.68;;;5.75;;
35074;SDS011;21260;34.984;32.490;2022-08-19T03:13:59;9.07;;;5.75;;
35074;SDS011;21260;34.984;32.490;2022-08-19T03:16:31;6.25;;;5.57;;
35074;SDS011;21260;34.984;32.490;2022-08-19T03:18:59;9.98;;;5.75;;
35074;SDS011;21260;34.984;32.490;2022-08-19T03:21:28;6.97;;;5.55;;
35074;SDS011;21260;34.984;32.490;2022-08-19T03:23:58;7.90;;;6.18;;
35074;SDS011;21260;34.984;32.490;2022-08-19T03:26:30;6.22;;;5.63;;
35074;SDS011;21260;34.984;32.490;2022-08-19T03:29:01;9.17;;;5.67;;
35074;SDS011;21260;34.984;32.490;2022-08-19T03:31:29;8.20;;;5.53;;
35074;SDS011;21260;34.984;32.490;2022-08-19T03:33:56;8.45;;;5.10;;
35074;SDS011;21260;34.984;32.490;2022-08-19T03:36:23;6.78;;;5.22;;
35074;SDS011;21260;34.984;32.490;2022-08-19T03:38:53;11.17;;;6.20;;
35074;SDS011;21260;34.984;32.490;2022-08-19T03:41:24;6.75;;;5.78;;
35074;SDS011;21260;34.984;32.490;2022-08-19T03:43:58;6.72;;;5.20;;
35074;SDS011;21260;34.984;32.490;2022-08-19T03:46:26;9.38;;;5.80;;
35074;SDS011;21260;34.984;32.490;2022-08-19T03:48:58;8.02;;;5.55;;
35074;SDS011;21260;34.984;32.490;2022-08-19T03:51:29;6.25;;;5.60;;
35074;SDS011;21260;34.984;32.490;2022-08-19T03:54:00;6.73;;;5.63;;
35074;SDS011;21260;34.984;32.490;2022-08-19T03:56:30;8.40;;;6.20;;
35074;SDS011;21260;34.984;32.490;2022-08-19T03:59:00;5.93;;;5.35;;
35074;SDS011;21260;34.984;32.490;2022-08-19T04:01:27;7.33;;;5.90;;
35074;SDS011;21260;34.984;32.490;2022-08-19T04:03:55;7.05;;;5.50;;
35074;SDS011;21260;34.984;32.490;2022-08-19T04:06:26;9.52;;;5.95;;
35074;SDS011;21260;34.984;32.490;2022-08-19T04:08:59;6.85;;;6.10;;
35074;SDS011;21260;34.984;32.490;2022-08-19T04:11:30;9.27;;;5.80;;
35074;SDS011;21260;34.984;32.490;2022-08-19T04:14:01;7.45;;;5.70;;
35074;SDS011;21260;34.984;32.490;2022-08-19T04:16:28;6.82;;;5.72;;
35074;SDS011;21260;34.984;32.490;2022-08-19T04:18:55;6.18;;;5.60;;
35074;SDS011;21260;34.984;32.490;2022-08-19T04:21:27;7.40;;;6.10;;
35074;SDS011;21260;34.984;32.490;2022-08-19T04:23:55;9.82;;;6.00;;
35074;SDS011;21260;34.984;32.490;2022-08-19T04:26:24;11.20;;;6.20;;
35074;SDS011;21260;34.984;32.490;2022-08-19T04:28:54;6.65;;;5.63;;
35074;SDS011;21260;34.984;32.490;2022-08-19T04:31:22;8.23;;;5.93;;
35074;SDS011;21260;34.984;32.490;2022-08-19T04:33:57;13.00;;;6.43;;
35074;SDS011;21260;34.984;32.490;2022-08-19T04:36:28;7.13;;;5.88;;
35074;SDS011;21260;34.984;32.490;2022-08-19T04:38:59;9.15;;;5.88;;
35074;SDS011;21260;34.984;32.490;2022-08-19T04:41:29;8.10;;;5.70;;
35074;SDS011;21260;34.984;32.490;2022-08-19T04:44:14;6.57;;;5.88;;
35074;SDS011;21260;34.984;32.490;2022-08-19T04:46:43;10.05;;;6.25;;
35074;SDS011;21260;34.984;32.490;2022-08-19T04:49:13;6.38;;;5.78;;
35074;SDS011;21260;34.984;32.490;2022-08-19T04:51:42;8.00;;;6.20;;
35074;SDS011;21260;34.984;32.490;2022-08-19T04:54:12;8.00;;;5.65;;
35074;SDS011;21260;34.984;32.490;2022-08-19T04:56:41;7.70;;;5.47;;
35074;SDS011;21260;34.984;32.490;2022-08-19T04:59:07;7.55;;;5.82;;
35074;SDS011;21260;34.984;32.490;2022-08-19T05:01:34;7.47;;;5.93;;
35074;SDS011;21260;34.984;32.490;2022-08-19T05:04:02;9.25;;;5.88;;
35074;SDS011;21260;34.984;32.490;2022-08-19T05:06:31;9.15;;;6.68;;
35074;SDS011;21260;34.984;32.490;2022-08-19T05:08:59;6.63;;;5.93;;
35074;SDS011;21260;34.984;32.490;2022-08-19T05:11:31;7.80;;;6.10;;
35074;SDS011;21260;34.984;32.490;2022-08-19T05:14:05;9.10;;;6.15;;
35074;SDS011;21260;34.984;32.490;2022-08-19T05:16:33;8.48;;;6.20;;
35074;SDS011;21260;34.984;32.490;2022-08-19T05:19:00;13.05;;;6.15;;
35074;SDS011;21260;34.984;32.490;2022-08-19T05:21:45;8.10;;;5.90;;
35074;SDS011;21260;34.984;32.490;2022-08-19T05:24:30;8.25;;;6.47;;
35074;SDS011;21260;34.984;32.490;2022-08-19T05:27:00;10.40;;;5.65;;
35074;SDS011;21260;34.984;32.490;2022-08-19T05:29:28;8.02;;;6.18;;
35074;SDS011;21260;34.984;32.490;2022-08-19T05:31:59;9.43;;;5.93;;
35074;SDS011;21260;34.984;32.490;2022-08-19T05:34:31;6.97;;;5.70;;
35074;SDS011;21260;34.984;32.490;2022-08-19T05:36:59;10.60;;;5.80;;
35074;SDS011;21260;34.984;32.490;2022-08-19T05:39:28;7.20;;;5.93;;
35074;SDS011;21260;34.984;32.490;2022-08-19T05:41:59;8.90;;;5.82;;
35074;SDS011;21260;34.984;32.490;2022-08-19T05:44:33;9.13;;;6.43;;
35074;SDS011;21260;34.984;32.490;2022-08-19T05:47:05;9.45;;;6.28;;
35074;SDS011;21260;34.984;32.490;2022-08-19T05:49:35;7.97;;;6.40;;
35074;SDS011;21260;34.984;32.490;2022-08-19T05:52:04;9.85;;;6.60;;
35074;SDS011;21260;34.984;32.490;2022-08-19T05:54:34;7.70;;;5.97;;
35074;SDS011;21260;34.984;32.490;2022-08-19T05:57:05;9.10;;;6.28;;
35074;SDS011;21260;34.984;32.490;2022-08-19T05:59:32;7.55;;;6.75;;
35074;SDS011;21260;34.984;32.490;2022-08-19T06:02:00;7.95;;;6.53;;
35074;SDS011;21260;34.984;32.490;2022-08-19T06:04:29;9.60;;;7.00;;
35074;SDS011;21260;34.984;32.490;2022-08-19T06:06:55;10.45;;;6.97;;
35074;SDS011;21260;34.984;32.490;2022-08-19T06:09:22;8.40;;;6.47;;
35074;SDS011;21260;34.984;32.490;2022-08-19T06:11:50;9.38;;;6.30;;
35074;SDS011;21260;34.984;32.490;2022-08-19T06:14:22;7.72;;;6.50;;
35074;SDS011;21260;34.984;32.490;2022-08-19T06:16:52;7.50;;;5.95;;
35074;SDS011;21260;34.984;32.490;2022-08-19T06:19:20;7.63;;;6.32;;
35074;SDS011;21260;34.984;32.490;2022-08-19T06:21:50;10.40;;;6.18;;
35074;SDS011;21260;34.984;32.490;2022-08-19T06:24:20;12.68;;;7.45;;
35074;SDS011;21260;34.984;32.490;2022-08-19T06:26:50;6.90;;;6.20;;
35074;SDS011;21260;34.984;32.490;2022-08-19T06:29:23;7.05;;;5.90;;
35074;SDS011;21260;34.984;32.490;2022-08-19T06:31:53;7.50;;;6.25;;
35074;SDS011;21260;34.984;32.490;2022-08-19T06:34:22;10.23;;;7.05;;
35074;SDS011;21260;34.984;32.490;2022-08-19T06:36:50;7.28;;;6.50;;
35074;SDS011;21260;34.984;32.490;2022-08-19T06:39:26;7.82;;;6.70;;
35074;SDS011;21260;34.984;32.490;2022-08-19T06:41:58;7.90;;;6.45;;
35074;SDS011;21260;34.984;32.490;2022-08-19T06:44:29;7.43;;;6.40;;
35074;SDS011;21260;34.984;32.490;2022-08-19T06:47:00;8.13;;;6.57;;
35074;SDS011;21260;34.984;32.490;2022-08-19T06:49:29;8.20;;;7.38;;
35074;SDS011;21260;34.984;32.490;2022-08-19T06:51:56;7.97;;;6.75;;
35074;SDS011;21260;34.984;32.490;2022-08-19T06:54:24;8.30;;;7.03;;
35074;SDS011;21260;34.984;32.490;2022-08-19T06:56:53;11.80;;;6.40;;
35074;SDS011;21260;34.984;32.490;2022-08-19T06:59:22;10.52;;;7.05;;
35074;SDS011;21260;34.984;32.490;2022-08-19T07:01:57;9.30;;;6.97;;
35074;SDS011;21260;34.984;32.490;2022-08-19T07:04:30;8.35;;;6.97;;
35074;SDS011;21260;34.984;32.490;2022-08-19T07:07:10;7.68;;;6.20;;
35074;SDS011;21260;34.984;32.490;2022-08-19T07:09:40;8.18;;;6.38;;
35074;SDS011;21260;34.984;32.490;2022-08-19T07:12:10;7.18;;;6.47;;
35074;SDS011;21260;34.984;32.490;2022-08-19T07:14:43;10.95;;;6.70;;
35074;SDS011;21260;34.984;32.490;2022-08-19T07:17:12;12.80;;;6.70;;
35074;SDS011;21260;34.984;32.490;2022-08-19T07:19:38;12.68;;;6.43;;
35074;SDS011;21260;34.984;32.490;2022-08-19T07:22:07;8.32;;;6.78;;
35074;SDS011;21260;34.984;32.490;2022-08-19T07:24:35;8.77;;;6.18;;
35074;SDS011;21260;34.984;32.490;2022-08-19T07:27:03;9.75;;;7.05;;
35074;SDS011;21260;34.984;32.490;2022-08-19T07:29:34;8.68;;;6.68;;
35074;SDS011;21260;34.984;32.490;2022-08-19T07:32:01;8.45;;;7.20;;
35074;SDS011;21260;34.984;32.490;2022-08-19T07:34:29;10.25;;;6.95;;
35074;SDS011;21260;34.984;32.490;2022-08-19T07:37:02;11.55;;;6.68;;
35074;SDS011;21260;34.984;32.490;2022-08-19T07:39:32;8.65;;;6.53;;
35074;SDS011;21260;34.984;32.490;2022-08-19T07:42:02;11.32;;;7.25;;
35074;SDS011;21260;34.984;32.490;2022-08-19T07:44:35;7.70;;;6.90;;
35074;SDS011;21260;34.984;32.490;2022-08-19T07:47:04;10.02;;;7.03;;
35074;SDS011;21260;34.984;32.490;2022-08-19T07:49:33;11.32;;;7.30;;
35074;SDS011;21260;34.984;32.490;2022-08-19T07:52:07;12.40;;;6.88;;
35074;SDS011;21260;34.984;32.490;2022-08-19T07:54:36;9.82;;;6.18;;
35074;SDS011;21260;34.984;32.490;2022-08-19T07:57:05;9.15;;;6.88;;
35074;SDS011;21260;34.984;32.490;2022-08-19T07:59:33;10.90;;;6.95;;
35074;SDS011;21260;34.984;32.490;2022-08-19T08:02:02;11.35;;;6.40;;
35074;SDS011;21260;34.984;32.490;2022-08-19T08:04:30;8.48;;;6.85;;
35074;SDS011;21260;34.984;32.490;2022-08-19T08:07:16;8.77;;;6.63;;
35074;SDS011;21260;34.984;32.490;2022-08-19T08:10:02;10.75;;;6.63;;
35074;SDS011;21260;34.984;32.490;2022-08-19T08:12:34;8.48;;;6.85;;
35074;SDS011;21260;34.984;32.490;2022-08-19T08:15:09;9.15;;;6.30;;
35074;SDS011;21260;34.984;32.490;2022-08-19T08:17:41;11.18;;;6.53;;
35074;SDS011;21260;34.984;32.490;2022-08-19T08:20:11;12.75;;;6.60;;
35074;SDS011;21260;34.984;32.490;2022-08-19T08:22:42;9.50;;;6.20;;
35074;SDS011;21260;34.984;32.490;2022-08-19T08:25:32;10.15;;;6.88;;
35074;SDS011;21260;34.984;32.490;2022-08-19T08:28:02;9.35;;;7.03;;
35074;SDS011;21260;34.984;32.490;2022-08-19T08:30:32;9.35;;;5.80;;
35074;SDS011;21260;34.984;32.490;2022-08-19T08:33:00;13.45;;;6.78;;
35074;SDS011;21260;34.984;32.490;2022-08-19T08:35:27;11.82;;;6.97;;
35074;SDS011;21260;34.984;32.490;2022-08-19T08:37:54;9.13;;;6.28;;
35074;SDS011;21260;34.984;32.490;2022-08-19T08:43:33;10.73;;;6.55;;
35074;SDS011;21260;34.984;32.490;2022-08-19T08:52:03;10.73;;;6.60;;
35074;SDS011;21260;34.984;32.490;2022-08-19T08:54:52;12.98;;;6.93;;
35074;SDS011;21260;34.984;32.490;2022-08-19T08:57:26;11.95;;;7.05;;
35074;SDS011;21260;34.984;32.490;2022-08-19T09:00:23;12.40;;;6.63;;
35074;SDS011;21260;34.984;32.490;2022-08-19T09:03:02;10.25;;;6.65;;
35074;SDS011;21260;34.984;32.490;2022-08-19T09:05:58;12.57;;;6.32;;
35074;SDS011;21260;34.984;32.490;2022-08-19T09:14:31;11.02;;;6.53;;
35074;SDS011;21260;34.984;32.490;2022-08-19T09:17:10;15.45;;;6.68;;
35074;SDS011;21260;34.984;32.490;2022-08-19T09:22:39;9.93;;;6.72;;
35074;SDS011;21260;34.984;32.490;2022-08-19T09:25:11;16.38;;;6.22;;
35074;SDS011;21260;34.984;32.490;2022-08-19T09:27:42;14.95;;;6.50;;
35074;SDS011;21260;34.984;32.490;2022-08-19T09:30:12;12.13;;;6.45;;
35074;SDS011;21260;34.984;32.490;2022-08-19T09:32:43;11.93;;;6.13;;
35074;SDS011;21260;34.984;32.490;2022-08-19T09:35:14;11.68;;;5.90;;
35074;SDS011;21260;34.984;32.490;2022-08-19T09:37:41;12.15;;;6.07;;
35074;SDS011;21260;34.984;32.490;2022-08-19T09:40:08;9.25;;;6.68;;
35074;SDS011;21260;34.984;32.490;2022-08-19T09:42:40;14.90;;;6.32;;
35074;SDS011;21260;34.984;32.490;2022-08-19T09:45:09;17.60;;;6.32;;
35074;SDS011;21260;34.984;32.490;2022-08-19T09:47:36;12.32;;;6.28;;
35074;SDS011;21260;34.984;32.490;2022-08-19T09:50:04;14.00;;;6.10;;
35074;SDS011;21260;34.984;32.490;2022-08-19T09:52:35;14.43;;;6.00;;
35074;SDS011;21260;34.984;32.490;2022-08-19T09:55:05;13.82;;;6.82;;
35074;SDS011;21260;34.984;32.490;2022-08-19T09:57:35;10.68;;;6.20;;
35074;SDS011;21260;34.984;32.490;2022-08-19T10:00:04;10.15;;;6.45;;
35074;SDS011;21260;34.984;32.490;2022-08-19T10:02:35;9.70;;;6.05;;
35074;SDS011;21260;34.984;32.490;2022-08-19T10:05:02;13.90;;;6.07;;
35074;SDS011;21260;34.984;32.490;2022-08-19T10:07:47;12.85;;;5.82;;
35074;SDS011;21260;34.984;32.490;2022-08-19T10:10:14;10.10;;;6.30;;
35074;SDS011;21260;34.984;32.490;2022-08-19T10:12:41;9.63;;;6.30;;
35074;SDS011;21260;34.984;32.490;2022-08-19T10:15:13;14.27;;;5.90;;
35074;SDS011;21260;34.984;32.490;2022-08-19T10:17:40;14.48;;;5.97;;
35074;SDS011;21260;34.984;32.490;2022-08-19T10:20:07;11.70;;;6.32;;
35074;SDS011;21260;34.984;32.490;2022-08-19T10:22:35;8.18;;;5.43;;
35074;SDS011;21260;34.984;32.490;2022-08-19T10:25:04;9.70;;;5.88;;
35074;SDS011;21260;34.984;32.490;2022-08-19T10:27:36;9.00;;;5.75;;
35074;SDS011;21260;34.984;32.490;2022-08-19T10:30:03;9.00;;;5.75;;
35074;SDS011;21260;34.984;32.490;2022-08-19T10:32:31;11.85;;;6.00;;
35074;SDS011;21260;34.984;32.490;2022-08-19T10:34:57;13.18;;;5.75;;
35074;SDS011;21260;34.984;32.490;2022-08-19T10:37:24;15.10;;;6.07;;
35074;SDS011;21260;34.984;32.490;2022-08-19T10:39:50;17.80;;;5.60;;
35074;SDS011;21260;34.984;32.490;2022-08-19T10:42:17;8.45;;;5.60;;
35074;SDS011;21260;34.984;32.490;2022-08-19T10:44:44;8.93;;;6.00;;
35074;SDS011;21260;34.984;32.490;2022-08-19T10:47:11;12.38;;;5.78;;
35074;SDS011;21260;34.984;32.490;2022-08-19T10:49:38;14.57;;;6.05;;
35074;SDS011;21260;34.984;32.490;2022-08-19T10:52:24;10.20;;;5.88;;
35074;SDS011;21260;34.984;32.490;2022-08-19T10:55:00;11.13;;;5.63;;
35074;SDS011;21260;34.984;32.490;2022-08-19T10:57:47;13.98;;;6.65;;
35074;SDS011;21260;34.984;32.490;2022-08-19T11:00:14;10.45;;;5.68;;
35074;SDS011;21260;34.984;32.490;2022-08-19T11:02:41;13.55;;;5.80;;
35074;SDS011;21260;34.984;32.490;2022-08-19T11:05:08;9.88;;;5.68;;
35074;SDS011;21260;34.984;32.490;2022-08-19T11:07:38;10.40;;;5.80;;
35074;SDS011;21260;34.984;32.490;2022-08-19T11:10:06;15.02;;;6.38;;
35074;SDS011;21260;34.984;32.490;2022-08-19T11:12:38;13.35;;;5.82;;
35074;SDS011;21260;34.984;32.490;2022-08-19T11:15:06;14.02;;;6.38;;
35074;SDS011;21260;34.984;32.490;2022-08-19T11:17:38;10.52;;;5.60;;
35074;SDS011;21260;34.984;32.490;2022-08-19T11:20:12;12.55;;;5.50;;
35074;SDS011;21260;34.984;32.490;2022-08-19T11:22:40;10.30;;;5.55;;
35074;SDS011;21260;34.984;32.490;2022-08-19T11:25:08;9.52;;;6.00;;
35074;SDS011;21260;34.984;32.490;2022-08-19T11:27:39;12.35;;;6.20;;
35074;SDS011;21260;34.984;32.490;2022-08-19T11:30:08;11.35;;;6.18;;
35074;SDS011;21260;34.984;32.490;2022-08-19T11:32:38;15.85;;;5.88;;
35074;SDS011;21260;34.984;32.490;2022-08-19T11:35:08;13.50;;;6.18;;
35074;SDS011;21260;34.984;32.490;2022-08-19T11:37:37;14.50;;;6.45;;
35074;SDS011;21260;34.984;32.490;2022-08-19T11:40:05;10.95;;;5.60;;
35074;SDS011;21260;34.984;32.490;2022-08-19T11:42:32;8.40;;;5.18;;
35074;SDS011;21260;34.984;32.490;2022-08-19T11:45:17;10.35;;;5.10;;
35074;SDS011;21260;34.984;32.490;2022-08-19T11:47:44;10.52;;;5.65;;
35074;SDS011;21260;34.984;32.490;2022-08-19T11:50:11;10.68;;;5.60;;
35074;SDS011;21260;34.984;32.490;2022-08-19T11:52:40;7.60;;;5.35;;
35074;SDS011;21260;34.984;32.490;2022-08-19T11:55:10;12.55;;;5.90;;
35074;SDS011;21260;34.984;32.490;2022-08-19T11:57:40;9.65;;;5.55;;
35074;SDS011;21260;34.984;32.490;2022-08-19T12:00:08;9.35;;;5.68;;
35074;SDS011;21260;34.984;32.490;2022-08-19T12:02:37;7.88;;;5.55;;
35074;SDS011;21260;34.984;32.490;2022-08-19T12:05:04;8.13;;;5.55;;
35074;SDS011;21260;34.984;32.490;2022-08-19T12:07:32;12.40;;;5.30;;
35074;SDS011;21260;34.984;32.490;2022-08-19T12:10:00;7.18;;;5.00;;
35074;SDS011;21260;34.984;32.490;2022-08-19T12:12:27;7.55;;;5.10;;
35074;SDS011;21260;34.984;32.490;2022-08-19T12:14:53;13.35;;;5.60;;
35074;SDS011;21260;34.984;32.490;2022-08-19T12:17:23;12.70;;;5.50;;
35074;SDS011;21260;34.984;32.490;2022-08-19T12:19:54;11.38;;;5.57;;
35074;SDS011;21260;34.984;32.490;2022-08-19T12:22:20;8.52;;;5.75;;
35074;SDS011;21260;34.984;32.490;2022-08-19T12:24:47;8.25;;;5.18;;
35074;SDS011;21260;34.984;32.490;2022-08-19T12:27:16;8.95;;;5.80;;
35074;SDS011;21260;34.984;32.490;2022-08-19T12:29:42;9.32;;;5.20;;
35074;SDS011;21260;34.984;32.490;2022-08-19T12:32:09;14.30;;;5.60;;
35074;SDS011;21260;34.984;32.490;2022-08-19T12:34:35;6.80;;;5.53;;
35074;SDS011;21260;34.984;32.490;2022-08-19T12:37:04;11.75;;;5.60;;
35074;SDS011;21260;34.984;32.490;2022-08-19T12:39:38;10.70;;;5.72;;
35074;SDS011;21260;34.984;32.490;2022-08-19T12:42:08;8.32;;;5.30;;
35074;SDS011;21260;34.984;32.490;2022-08-19T12:44:37;8.95;;;5.68;;
35074;SDS011;21260;34.984;32.490;2022-08-19T12:47:06;14.07;;;5.63;;
35074;SDS011;21260;34.984;32.490;2022-08-19T12:49:34;8.52;;;5.88;;
35074;SDS011;21260;34.984;32.490;2022-08-19T12:52:05;11.45;;;5.38;;
35074;SDS011;21260;34.984;32.490;2022-08-19T12:54:42;11.55;;;5.85;;
35074;SDS011;21260;34.984;32.490;2022-08-19T12:57:10;10.35;;;5.53;;
35074;SDS011;21260;34.984;32.490;2022-08-19T12:59:38;15.57;;;5.82;;
35074;SDS011;21260;34.984;32.490;2022-08-19T13:02:05;8.13;;;5.65;;
35074;SDS011;21260;34.984;32.490;2022-08-19T13:04:33;11.65;;;6.20;;
35074;SDS011;21260;34.984;32.490;2022-08-19T13:07:02;8.13;;;5.28;;
35074;SDS011;21260;34.984;32.490;2022-08-19T13:09:29;8.65;;;5.38;;
35074;SDS011;21260;34.984;32.490;2022-08-19T13:11:56;12.95;;;6.20;;
35074;SDS011;21260;34.984;32.490;2022-08-19T13:14:22;9.90;;;5.90;;
35074;SDS011;21260;34.984;32.490;2022-08-19T13:16:48;11.55;;;6.20;;
35074;SDS011;21260;34.984;32.490;2022-08-19T13:19:15;16.00;;;6.20;;
35074;SDS011;21260;34.984;32.490;2022-08-19T13:21:48;11.55;;;6.35;;
35074;SDS011;21260;34.984;32.490;2022-08-19T13:24:17;10.00;;;5.53;;
35074;SDS011;21260;34.984;32.490;2022-08-19T13:26:43;9.32;;;6.35;;
35074;SDS011;21260;34.984;32.490;2022-08-19T13:29:10;9.95;;;5.90;;
35074;SDS011;21260;34.984;32.490;2022-08-19T13:31:55;8.43;;;5.05;;
35074;SDS011;21260;34.984;32.490;2022-08-19T13:34:40;12.25;;;5.97;;
35074;SDS011;21260;34.984;32.490;2022-08-19T13:37:06;12.50;;;5.45;;
35074;SDS011;21260;34.984;32.490;2022-08-19T13:39:33;12.55;;;6.25;;
35074;SDS011;21260;34.984;32.490;2022-08-19T13:42:01;9.52;;;5.63;;
35074;SDS011;21260;34.984;32.490;2022-08-19T13:44:29;8.40;;;5.57;;
35074;SDS011;21260;34.984;32.490;2022-08-19T13:47:00;11.70;;;5.63;;
35074;SDS011;21260;34.984;32.490;2022-08-19T13:49:32;12.35;;;5.68;;
35074;SDS011;21260;34.984;32.490;2022-08-19T13:52:01;11.18;;;5.68;;
35074;SDS011;21260;34.984;32.490;2022-08-19T13:54:30;14.70;;;6.63;;
35074;SDS011;21260;34.984;32.490;2022-08-19T13:56:57;8.48;;;5.53;;
35074;SDS011;21260;34.984;32.490;2022-08-19T13:59:23;10.73;;;5.43;;
35074;SDS011;21260;34.984;32.490;2022-08-19T14:01:51;9.30;;;5.45;;
35074;SDS011;21260;34.984;32.490;2022-08-19T14:04:22;6.60;;;5.00;;
35074;SDS011;21260;34.984;32.490;2022-08-19T14:06:49;8.95;;;5.28;;
35074;SDS011;21260;34.984;32.490;2022-08-19T14:09:15;8.77;;;5.55;;
35074;SDS011;21260;34.984;32.490;2022-08-19T14:11:41;11.27;;;5.15;;
35074;SDS011;21260;34.984;32.490;2022-08-19T14:14:10;9.07;;;5.65;;
35074;SDS011;21260;34.984;32.490;2022-08-19T14:16:37;11.73;;;5.50;;
35074;SDS011;21260;34.984;32.490;2022-08-19T14:19:03;8.27;;;5.50;;
35074;SDS011;21260;34.984;32.490;2022-08-19T14:21:30;10.95;;;5.35;;
35074;SDS011;21260;34.984;32.490;2022-08-19T14:23:56;9.40;;;5.25;;
35074;SDS011;21260;34.984;32.490;2022-08-19T14:26:23;8.68;;;5.45;;
35074;SDS011;21260;34.984;32.490;2022-08-19T14:28:49;7.80;;;5.47;;
35074;SDS011;21260;34.984;32.490;2022-08-19T14:31:17;13.02;;;5.88;;
35074;SDS011;21260;34.984;32.490;2022-08-19T14:33:45;8.57;;;5.57;;
35074;SDS011;21260;34.984;32.490;2022-08-19T14:36:13;8.98;;;5.78;;
35074;SDS011;21260;34.984;32.490;2022-08-19T14:38:40;10.35;;;5.45;;
35074;SDS011;21260;34.984;32.490;2022-08-19T14:41:11;11.02;;;5.70;;
35074;SDS011;21260;34.984;32.490;2022-08-19T14:43:52;11.73;;;6.07;;
35074;SDS011;21260;34.984;32.490;2022-08-19T14:46:22;14.82;;;6.18;;
35074;SDS011;21260;34.984;32.490;2022-08-19T14:48:52;9.65;;;5.25;;
35074;SDS011;21260;34.984;32.490;2022-08-19T14:51:19;11.88;;;5.80;;
35074;SDS011;21260;34.984;32.490;2022-08-19T14:53:48;11.85;;;6.22;;
35074;SDS011;21260;34.984;32.490;2022-08-19T14:56:17;12.35;;;5.90;;
35074;SDS011;21260;34.984;32.490;2022-08-19T14:58:49;9.55;;;5.95;;
35074;SDS011;21260;34.984;32.490;2022-08-19T15:01:16;10.70;;;5.70;;
35074;SDS011;21260;34.984;32.490;2022-08-19T15:03:48;10.63;;;5.53;;